createdAt,value
2022-09-24T00:01:32.585Z,55.85
2022-09-24T00:04:02.747Z,56.42
2022-09-24T00:06:31.349Z,55.45
2022-09-24T00:08:59.360Z,54.80
2022-09-24T00:11:27.795Z,56.58
2022-09-24T00:13:57.035Z,51.10
2022-09-24T00:16:26.373Z,56.47
2022-09-24T00:18:54.257Z,50.25
2022-09-24T00:21:24.173Z,52.75
2022-09-24T00:23:56.702Z,43.58
2022-09-24T00:26:42.300Z,50.80
2022-09-24T00:29:10.886Z,48.13
2022-09-24T00:31:37.762Z,50.95
2022-09-24T00:34:05.393Z,49.17
2022-09-24T00:36:32.552Z,54.13
2022-09-24T00:39:01.278Z,51.60
2022-09-24T00:41:31.275Z,58.92
2022-09-24T00:43:59.110Z,54.53
2022-09-24T00:46:26.132Z,49.65
2022-09-24T00:49:10.801Z,49.53
2022-09-24T00:51:40.193Z,52.28
2022-09-24T00:54:12.817Z,55.40
2022-09-24T00:56:42.993Z,53.05
2022-09-24T00:59:13.989Z,49.40
2022-09-24T01:01:41.123Z,51.85
2022-09-24T01:04:08.253Z,46.38
2022-09-24T01:06:35.049Z,50.78
2022-09-24T01:09:02.035Z,48.47
2022-09-24T01:11:52.018Z,46.22
2022-09-24T01:14:33.172Z,44.05
2022-09-24T01:17:37.295Z,47.25
2022-09-24T01:20:41.539Z,47.25
2022-09-24T01:23:33.646Z,42.58
2022-09-24T01:26:20.158Z,49.00
2022-09-24T01:28:52.851Z,42.35
2022-09-24T01:31:31.693Z,49.13
2022-09-24T01:34:02.190Z,42.40
2022-09-24T01:39:01.132Z,43.72
2022-09-24T01:41:28.949Z,43.40
2022-09-24T01:43:56.028Z,39.40
2022-09-24T01:46:24.150Z,44.60
2022-09-24T01:48:52.584Z,41.00
2022-09-24T01:51:27.951Z,44.88
2022-09-24T01:54:03.726Z,40.55
2022-09-24T01:56:33.519Z,42.13
2022-09-24T01:59:11.223Z,40.83
2022-09-24T02:01:44.319Z,40.25
2022-09-24T02:04:17.265Z,39.13
2022-09-24T02:06:56.407Z,38.67
2022-09-24T02:09:50.197Z,39.67
2022-09-24T02:12:29.764Z,38.67
2022-09-24T02:15:11.483Z,41.37
2022-09-24T02:17:41.097Z,43.30
2022-09-24T02:20:16.433Z,38.17
2022-09-24T02:22:44.561Z,35.65
2022-09-24T02:25:15.518Z,37.63
2022-09-24T02:27:42.411Z,39.72
2022-09-24T02:30:10.935Z,41.38
2022-09-24T02:32:40.563Z,37.63
2022-09-24T02:35:10.455Z,35.47
2022-09-24T02:37:39.959Z,35.60
2022-09-24T02:40:09.084Z,35.30
2022-09-24T02:42:36.108Z,35.67
2022-09-24T02:45:04.579Z,37.20
2022-09-24T02:47:31.602Z,36.25
2022-09-24T02:49:58.407Z,37.65
2022-09-24T02:52:25.230Z,43.15
2022-09-24T02:54:52.186Z,40.78
2022-09-24T02:57:19.564Z,43.42
2022-09-24T02:59:47.297Z,46.30
2022-09-24T03:02:15.292Z,42.85
2022-09-24T03:04:42.701Z,44.75
2022-09-24T03:07:10.381Z,44.60
2022-09-24T03:09:37.247Z,39.03
2022-09-24T03:12:05.226Z,36.40
2022-09-24T03:14:32.119Z,35.17
2022-09-24T03:16:59.085Z,35.63
2022-09-24T03:19:25.906Z,36.88
2022-09-24T03:21:52.827Z,33.75
2022-09-24T03:24:19.719Z,38.38
2022-09-24T03:26:46.510Z,38.60
2022-09-24T03:29:13.412Z,35.75
2022-09-24T03:31:40.271Z,37.00
2022-09-24T03:34:07.208Z,33.03
2022-09-24T03:36:34.240Z,30.58
2022-09-24T03:39:00.992Z,33.22
2022-09-24T03:41:28.374Z,36.08
2022-09-24T03:43:56.106Z,30.95
2022-09-24T03:46:24.856Z,32.40
2022-09-24T03:48:52.334Z,29.65
2022-09-24T03:51:20.200Z,28.92
2022-09-24T03:53:47.983Z,29.38
2022-09-24T03:56:16.130Z,28.20
2022-09-24T03:58:47.612Z,29.80
2022-09-24T04:01:21.961Z,26.15
2022-09-24T04:03:50.036Z,22.30
2022-09-24T04:06:20.699Z,27.45
2022-09-24T04:08:50.425Z,25.02
2022-09-24T04:11:17.165Z,27.45
2022-09-24T04:13:44.187Z,25.52
2022-09-24T04:16:11.018Z,22.88
2022-09-24T04:18:39.418Z,22.60
2022-09-24T04:21:06.634Z,23.13
2022-09-24T04:23:33.579Z,22.30
2022-09-24T04:26:02.313Z,25.50
2022-09-24T04:28:30.332Z,23.63
2022-09-24T04:30:57.590Z,25.48
2022-09-24T04:33:24.585Z,25.33
2022-09-24T04:35:51.452Z,25.60
2022-09-24T04:38:19.682Z,24.33
2022-09-24T04:40:47.502Z,27.73
2022-09-24T04:43:14.459Z,22.13
2022-09-24T04:45:44.155Z,24.80
2022-09-24T04:48:11.376Z,25.27
2022-09-24T04:50:43.304Z,24.98
2022-09-24T04:53:14.136Z,23.75
2022-09-24T04:55:41.758Z,26.30
2022-09-24T04:58:09.560Z,26.90
2022-09-24T05:00:36.569Z,26.05
2022-09-24T05:03:03.732Z,24.77
2022-09-24T05:05:32.392Z,24.80
2022-09-24T05:08:01.517Z,27.65
2022-09-24T05:10:29.878Z,29.42
2022-09-24T05:12:56.682Z,31.17
2022-09-24T05:15:23.808Z,26.20
2022-09-24T05:17:50.661Z,26.48
2022-09-24T05:20:19.963Z,26.35
2022-09-24T05:22:49.660Z,24.85
2022-09-24T05:25:20.477Z,28.55
2022-09-24T05:27:51.764Z,25.98
2022-09-24T05:30:20.026Z,27.52
2022-09-24T05:32:52.570Z,25.80
2022-09-24T05:35:23.983Z,29.95
2022-09-24T05:37:53.923Z,27.35
2022-09-24T05:40:40.388Z,27.50
2022-09-24T05:43:07.446Z,26.42
2022-09-24T05:45:34.282Z,28.02
2022-09-24T05:48:01.965Z,27.73
2022-09-24T05:50:28.961Z,25.20
2022-09-24T05:52:56.161Z,30.70
2022-09-24T05:55:22.969Z,32.00
2022-09-24T05:57:49.821Z,27.17
2022-09-24T06:00:16.822Z,26.33
2022-09-24T06:02:43.721Z,23.25
2022-09-24T06:05:11.380Z,28.73
2022-09-24T06:07:38.408Z,23.50
2022-09-24T06:10:07.629Z,27.98
2022-09-24T06:12:35.075Z,22.25
2022-09-24T06:15:02.274Z,22.83
2022-09-24T06:17:29.071Z,25.60
2022-09-24T06:19:58.077Z,25.17
2022-09-24T06:22:28.401Z,23.10
2022-09-24T06:24:58.281Z,23.98
2022-09-24T06:27:25.040Z,22.52
2022-09-24T06:29:51.816Z,24.35
2022-09-24T06:32:20.278Z,24.00
2022-09-24T06:34:47.546Z,25.10
2022-09-24T06:37:14.362Z,21.90
2022-09-24T06:39:41.186Z,26.38
2022-09-24T06:42:08.261Z,23.05
2022-09-24T06:44:35.830Z,26.40
2022-09-24T06:47:11.227Z,24.58
2022-09-24T06:49:38.065Z,25.15
2022-09-24T06:52:04.958Z,25.92
2022-09-24T06:54:32.093Z,22.70
2022-09-24T06:56:58.873Z,25.05
2022-09-24T06:59:25.714Z,25.00
2022-09-24T07:01:53.786Z,21.63
2022-09-24T07:04:21.661Z,21.83
2022-09-24T07:07:07.030Z,24.08
2022-09-24T07:09:33.847Z,22.95
2022-09-24T07:12:04.775Z,23.58
2022-09-24T07:14:31.590Z,19.83
2022-09-24T07:16:58.353Z,23.60
2022-09-24T07:19:25.536Z,26.15
2022-09-24T07:21:52.325Z,20.50
2022-09-24T07:24:19.142Z,23.35
2022-09-24T07:26:45.957Z,22.02
2022-09-24T07:29:12.759Z,18.90
2022-09-24T07:31:39.995Z,19.83
2022-09-24T07:34:09.108Z,16.67
2022-09-24T07:36:36.231Z,16.80
2022-09-24T07:39:03.139Z,17.60
2022-09-24T07:41:30.399Z,15.00
2022-09-24T07:43:57.266Z,15.38
2022-09-24T07:46:24.862Z,14.05
2022-09-24T07:48:58.075Z,15.48
2022-09-24T07:51:28.377Z,22.60
2022-09-24T07:53:56.358Z,17.27
2022-09-24T07:56:24.633Z,17.35
2022-09-24T07:58:52.671Z,16.98
2022-09-24T08:01:20.281Z,17.02
2022-09-24T08:03:48.660Z,17.58
2022-09-24T08:06:15.468Z,18.95
2022-09-24T08:08:43.555Z,13.48
2022-09-24T08:11:16.640Z,15.68
2022-09-24T08:13:43.833Z,16.48
2022-09-24T08:16:10.733Z,14.30
2022-09-24T08:18:37.574Z,12.23
2022-09-24T08:21:07.289Z,12.55
2022-09-24T08:23:34.809Z,14.45
2022-09-24T08:26:05.595Z,13.95
2022-09-24T08:28:32.608Z,13.30
2022-09-24T08:31:00.710Z,16.67
2022-09-24T08:33:32.339Z,14.60
2022-09-24T08:36:04.994Z,17.20
2022-09-24T08:38:31.893Z,13.80
2022-09-24T08:41:13.844Z,13.25
2022-09-24T08:44:12.448Z,10.27
2022-09-24T08:47:10.935Z,16.95
2022-09-24T08:49:40.646Z,12.65
2022-09-24T08:52:20.202Z,11.90
2022-09-24T08:54:50.623Z,12.18
2022-09-24T08:59:50.534Z,11.20
2022-09-24T09:02:38.082Z,11.25
2022-09-24T09:05:18.193Z,10.00
2022-09-24T09:07:56.712Z,9.80
2022-09-24T09:10:31.493Z,9.35
2022-09-24T09:13:13.916Z,14.68
2022-09-24T09:15:45.238Z,11.63
2022-09-24T09:18:34.967Z,13.55
2022-09-24T09:21:27.909Z,13.40
2022-09-24T09:23:57.167Z,14.50
2022-09-24T09:26:26.734Z,10.85
2022-09-24T09:28:59.791Z,15.02
2022-09-24T09:31:46.291Z,13.13
2022-09-24T09:34:30.405Z,8.57
2022-09-24T09:37:26.279Z,10.70
2022-09-24T09:40:30.689Z,11.65
2022-09-24T09:43:04.154Z,8.95
2022-09-24T09:45:32.497Z,11.95
2022-09-24T09:48:01.864Z,12.57
2022-09-24T09:50:28.735Z,14.47
2022-09-24T09:56:43.939Z,12.93
2022-09-24T09:59:13.920Z,10.68
2022-09-24T10:01:42.962Z,13.82
2022-09-24T10:04:29.058Z,12.35
2022-09-24T10:07:14.787Z,15.80
2022-09-24T10:09:43.187Z,12.18
2022-09-24T10:12:21.688Z,12.55
2022-09-24T10:15:04.180Z,11.32
2022-09-24T10:17:40.119Z,16.83
2022-09-24T10:20:15.642Z,13.55
2022-09-24T10:23:06.351Z,14.02
2022-09-24T10:25:36.373Z,12.05
2022-09-24T10:28:27.118Z,14.73
2022-09-24T10:31:09.991Z,14.02
2022-09-24T10:33:42.836Z,7.40
2022-09-24T10:36:20.067Z,8.27
2022-09-24T10:38:47.130Z,7.82
2022-09-24T10:41:28.655Z,8.85
2022-09-24T10:43:57.355Z,8.20
2022-09-24T10:46:43.206Z,8.68
2022-09-24T10:49:22.649Z,8.77
2022-09-24T10:52:12.660Z,8.97
2022-09-24T10:54:57.347Z,9.52
2022-09-24T10:57:33.074Z,9.65
2022-09-24T11:00:32.344Z,13.07
2022-09-24T11:03:29.747Z,12.55
2022-09-24T11:06:05.867Z,10.45
2022-09-24T11:08:51.199Z,8.25
2022-09-24T11:11:33.020Z,11.65
2022-09-24T11:14:33.023Z,6.93
2022-09-24T11:17:21.715Z,8.23
2022-09-24T11:20:03.628Z,9.18
2022-09-24T11:22:43.469Z,9.35
2022-09-24T11:25:31.591Z,10.60
2022-09-24T11:28:05.033Z,9.23
2022-09-24T11:30:47.860Z,7.90
2022-09-24T11:33:16.445Z,8.38
2022-09-24T11:36:20.944Z,9.52
2022-09-24T11:39:11.761Z,11.80
2022-09-24T11:41:49.907Z,10.05
2022-09-24T11:44:31.491Z,8.00
2022-09-24T11:47:22.288Z,9.23
2022-09-24T11:50:18.092Z,8.60
2022-09-24T11:52:54.313Z,13.80
2022-09-24T11:55:34.413Z,12.60
2022-09-24T11:58:48.440Z,9.70
2022-09-24T12:01:20.817Z,9.98
2022-09-24T12:04:22.095Z,9.57
2022-09-24T12:07:14.786Z,10.20
2022-09-24T12:09:47.846Z,11.00
2022-09-24T12:12:29.420Z,13.10
2022-09-24T12:15:01.649Z,12.52
2022-09-24T12:17:42.501Z,12.98
2022-09-24T12:20:20.416Z,12.18
2022-09-24T12:22:50.664Z,10.75
2022-09-24T12:27:46.536Z,10.80
2022-09-24T12:30:39.445Z,10.05
2022-09-24T12:33:18.476Z,9.50
2022-09-24T12:36:22.109Z,12.65
2022-09-24T12:38:52.377Z,14.85
2022-09-24T12:43:52.057Z,12.60
2022-09-24T12:46:33.174Z,11.80
2022-09-24T12:49:01.270Z,9.25
2022-09-24T12:51:39.409Z,13.30
2022-09-24T12:54:24.462Z,11.35
2022-09-24T12:56:51.645Z,13.55
2022-09-24T12:59:26.590Z,10.45
2022-09-24T13:01:54.337Z,10.75
2022-09-24T13:04:21.634Z,13.52
2022-09-24T13:06:49.953Z,11.98
2022-09-24T13:09:35.875Z,12.13
2022-09-24T13:12:29.588Z,14.48
2022-09-24T13:15:00.921Z,9.20
2022-09-24T13:17:28.396Z,11.18
2022-09-24T13:20:17.244Z,11.73
2022-09-24T13:22:55.436Z,10.80
2022-09-24T13:25:24.835Z,12.13
2022-09-24T13:28:04.081Z,10.40
2022-09-24T13:30:31.038Z,8.43
2022-09-24T13:33:02.476Z,9.40
2022-09-24T13:35:34.978Z,11.10
2022-09-24T13:38:09.393Z,14.45
2022-09-24T13:40:43.349Z,9.55
2022-09-24T13:43:41.219Z,9.55
2022-09-24T13:46:14.821Z,9.70
2022-09-24T13:48:50.980Z,9.10
2022-09-24T13:51:21.751Z,15.07
2022-09-24T13:54:03.428Z,12.77
2022-09-24T13:56:30.379Z,9.63
2022-09-24T13:59:06.946Z,11.13
2022-09-24T14:01:47.154Z,10.35
2022-09-24T14:06:47.219Z,10.63
2022-09-24T14:09:27.926Z,9.20
2022-09-24T14:12:00.535Z,7.95
2022-09-24T14:14:29.934Z,15.43
2022-09-24T14:17:07.944Z,13.67
2022-09-24T14:19:36.062Z,15.27
2022-09-24T14:22:05.017Z,13.73
2022-09-24T14:24:35.758Z,8.38
2022-09-24T14:27:10.214Z,10.75
2022-09-24T14:29:48.416Z,14.00
2022-09-24T14:32:21.590Z,10.73
2022-09-24T14:34:52.891Z,10.75
2022-09-24T14:37:27.309Z,11.35
2022-09-24T14:40:00.845Z,9.45
2022-09-24T14:42:34.531Z,8.60
2022-09-24T14:45:04.488Z,10.55
2022-09-24T14:47:34.306Z,11.45
2022-09-24T14:50:04.160Z,8.45
2022-09-24T14:52:39.338Z,9.32
2022-09-24T14:55:20.617Z,28.00
2022-09-24T14:57:53.883Z,66.30
2022-09-24T15:00:47.582Z,74.88
2022-09-24T15:03:21.213Z,34.53
2022-09-24T15:05:48.150Z,24.42
2022-09-24T15:08:28.100Z,15.48
2022-09-24T15:11:00.677Z,9.93
2022-09-24T15:13:36.818Z,11.55
2022-09-24T15:16:07.948Z,8.18
2022-09-24T15:18:35.537Z,12.05
2022-09-24T15:21:06.243Z,12.45
2022-09-24T15:23:33.306Z,12.07
2022-09-24T15:26:00.640Z,11.27
2022-09-24T15:28:29.201Z,12.15
2022-09-24T15:30:57.269Z,12.32
2022-09-24T15:33:24.234Z,13.68
2022-09-24T15:35:51.371Z,12.63
2022-09-24T15:38:19.904Z,15.48
2022-09-24T15:40:48.282Z,11.55
2022-09-24T15:43:23.504Z,11.60
2022-09-24T15:45:50.975Z,12.85
2022-09-24T15:48:17.915Z,15.55
2022-09-24T15:50:46.778Z,16.88
2022-09-24T15:53:24.749Z,16.27
2022-09-24T15:55:55.137Z,15.38
2022-09-24T16:00:49.811Z,18.85
2022-09-24T16:03:24.935Z,21.98
2022-09-24T16:05:52.157Z,25.13
2022-09-24T16:08:19.111Z,28.20
2022-09-24T16:10:46.397Z,30.58
2022-09-24T16:13:14.228Z,34.28
2022-09-24T16:15:41.651Z,34.47
2022-09-24T16:18:13.962Z,35.53
2022-09-24T16:20:41.586Z,39.33
2022-09-24T16:23:14.506Z,41.75
2022-09-24T16:25:43.244Z,38.60
2022-09-24T16:28:10.051Z,34.42
2022-09-24T16:30:38.838Z,39.30
2022-09-24T16:33:05.907Z,42.17
2022-09-24T16:35:32.734Z,39.42
2022-09-24T16:37:59.681Z,41.90
2022-09-24T16:40:26.654Z,44.45
2022-09-24T16:42:53.640Z,49.92
2022-09-24T16:45:20.544Z,54.03
2022-09-24T16:47:47.395Z,61.53
2022-09-24T16:50:14.308Z,51.70
2022-09-24T16:52:42.889Z,52.90
2022-09-24T16:55:09.865Z,47.90
2022-09-24T16:57:40.184Z,54.05
2022-09-24T17:00:11.155Z,50.72
2022-09-24T17:02:38.078Z,56.53
2022-09-24T17:05:05.412Z,54.80
2022-09-24T17:07:32.968Z,53.15
2022-09-24T17:10:16.059Z,51.72
2022-09-24T17:12:49.235Z,55.72
2022-09-24T17:15:20.560Z,57.35
2022-09-24T17:17:50.189Z,59.35
2022-09-24T17:20:22.700Z,64.75
2022-09-24T17:22:50.269Z,62.70
2022-09-24T17:25:17.182Z,65.20
2022-09-24T17:27:44.951Z,75.00
2022-09-24T17:30:12.201Z,91.20
2022-09-24T17:32:39.038Z,97.65
2022-09-24T17:35:07.899Z,96.68
2022-09-24T17:37:34.934Z,83.97
2022-09-24T17:40:02.935Z,76.22
2022-09-24T17:42:31.679Z,76.05
2022-09-24T17:44:58.509Z,71.93
2022-09-24T17:47:45.304Z,80.07
2022-09-24T17:50:12.109Z,87.30
2022-09-24T17:52:38.965Z,103.43
2022-09-24T17:55:08.387Z,106.15
2022-09-24T17:57:35.228Z,108.80
2022-09-24T18:00:02.361Z,113.90
2022-09-24T18:02:29.216Z,111.97
2022-09-24T18:04:56.105Z,109.50
2022-09-24T18:07:24.873Z,110.80
2022-09-24T18:09:55.990Z,110.60
2022-09-24T18:12:23.069Z,103.68
2022-09-24T18:14:49.826Z,100.63
2022-09-24T18:17:16.631Z,94.10
2022-09-24T18:19:43.384Z,100.78
2022-09-24T18:22:11.197Z,101.10
2022-09-24T18:24:38.006Z,106.47
2022-09-24T18:27:05.248Z,103.57
2022-09-24T18:29:32.147Z,103.68
2022-09-24T18:31:58.947Z,101.15
2022-09-24T18:34:25.714Z,98.85
2022-09-24T18:36:52.750Z,82.38
2022-09-24T18:39:25.078Z,84.57
2022-09-24T18:41:53.035Z,83.85
2022-09-24T18:44:19.886Z,84.78
2022-09-24T18:46:47.068Z,76.25
2022-09-24T18:49:14.050Z,89.82
2022-09-24T18:51:41.119Z,89.30
2022-09-24T18:54:12.533Z,85.35
2022-09-24T18:56:39.651Z,83.50
2022-09-24T18:59:11.817Z,84.82
2022-09-24T19:01:40.155Z,89.30
2022-09-24T19:04:10.569Z,88.50
2022-09-24T19:06:42.850Z,87.50
2022-09-24T19:09:11.192Z,99.03
2022-09-24T19:11:39.969Z,94.93
2022-09-24T19:14:07.012Z,84.97
2022-09-24T19:16:34.177Z,84.78
2022-09-24T19:19:09.755Z,82.50
2022-09-24T19:21:37.007Z,90.65
2022-09-24T19:24:06.464Z,95.50
2022-09-24T19:26:35.881Z,89.45
2022-09-24T19:29:03.642Z,99.10
2022-09-24T19:31:34.858Z,118.50
2022-09-24T19:34:04.657Z,106.55
2022-09-24T19:36:38.759Z,97.60
2022-09-24T19:39:11.892Z,100.68
2022-09-24T19:41:39.604Z,95.72
2022-09-24T19:44:09.138Z,96.90
2022-09-24T19:46:37.246Z,100.63
2022-09-24T19:49:05.922Z,107.78
2022-09-24T19:51:33.756Z,106.13
2022-09-24T19:54:04.152Z,95.70
2022-09-24T19:59:00.886Z,101.70
2022-09-24T20:01:33.222Z,100.70
2022-09-24T20:04:03.757Z,90.38
2022-09-24T20:06:33.737Z,97.97
2022-09-24T20:09:00.951Z,91.63
2022-09-24T20:11:29.466Z,88.90
2022-09-24T20:13:58.736Z,88.15
2022-09-24T20:16:27.420Z,81.78
2022-09-24T20:18:58.042Z,88.78
2022-09-24T20:21:31.557Z,84.70
2022-09-24T20:23:59.434Z,86.28
2022-09-24T20:26:45.874Z,89.60
2022-09-24T20:29:14.353Z,85.45
2022-09-24T20:31:45.305Z,89.25
2022-09-24T20:34:12.129Z,86.28
2022-09-24T20:36:38.973Z,86.47
2022-09-24T20:39:05.810Z,94.18
2022-09-24T20:41:32.614Z,93.00
2022-09-24T20:43:59.422Z,92.45
2022-09-24T20:46:28.691Z,90.80
2022-09-24T20:49:00.260Z,94.95
2022-09-24T20:51:29.379Z,91.15
2022-09-24T20:53:58.129Z,86.97
2022-09-24T20:56:26.873Z,88.20
2022-09-24T20:58:54.189Z,78.43
2022-09-24T21:01:22.450Z,81.28
2022-09-24T21:03:50.261Z,73.93
2022-09-24T21:06:22.861Z,76.78
2022-09-24T21:08:50.904Z,73.22
2022-09-24T21:11:27.537Z,68.03
2022-09-24T21:13:58.489Z,62.95
2022-09-24T21:16:28.936Z,69.80
2022-09-24T21:21:28.841Z,74.38
2022-09-24T21:23:58.466Z,66.97
2022-09-24T21:26:27.427Z,76.90
2022-09-24T21:28:56.633Z,72.60
2022-09-24T21:31:26.787Z,71.97
2022-09-24T21:33:53.872Z,76.47
2022-09-24T21:36:24.131Z,81.25
2022-09-24T21:38:54.881Z,77.40
2022-09-24T21:41:35.484Z,72.72
2022-09-24T21:44:03.248Z,76.97
2022-09-24T21:46:32.851Z,71.35
2022-09-24T21:49:01.269Z,73.73
2022-09-24T21:51:30.056Z,72.43
2022-09-24T21:54:02.250Z,73.20
2022-09-24T21:56:30.497Z,73.45
2022-09-24T21:58:58.060Z,72.03
2022-09-24T22:01:30.955Z,68.07
2022-09-24T22:03:59.889Z,72.72
2022-09-24T22:06:29.093Z,67.57
2022-09-24T22:08:58.045Z,66.75
2022-09-24T22:11:26.382Z,71.28
2022-09-24T22:14:06.087Z,67.03
2022-09-24T22:16:35.565Z,63.22
2022-09-24T22:19:04.537Z,78.97
2022-09-24T22:21:32.092Z,69.53
2022-09-24T22:23:59.698Z,67.78
2022-09-24T22:26:29.642Z,61.97
2022-09-24T22:28:56.805Z,65.95
2022-09-24T22:31:24.384Z,63.88
2022-09-24T22:34:10.157Z,63.20
2022-09-24T22:36:37.427Z,61.38
2022-09-24T22:39:07.636Z,61.13
2022-09-24T22:41:38.564Z,60.67
2022-09-24T22:44:06.005Z,67.22
2022-09-24T22:46:34.173Z,57.67
2022-09-24T22:49:01.566Z,60.05
2022-09-24T22:51:29.787Z,60.08
2022-09-24T22:53:56.988Z,60.88
2022-09-24T22:56:26.069Z,59.53
2022-09-24T22:58:55.597Z,63.30
2022-09-24T23:01:28.049Z,57.57
2022-09-24T23:03:56.974Z,68.57
2022-09-24T23:06:25.316Z,55.30
2022-09-24T23:08:54.046Z,60.63
2022-09-24T23:11:23.616Z,59.40
2022-09-24T23:13:58.998Z,57.00
2022-09-24T23:16:31.294Z,57.33
2022-09-24T23:19:00.816Z,54.88
2022-09-24T23:21:31.479Z,58.27
2022-09-24T23:24:04.518Z,60.08
2022-09-24T23:26:32.073Z,56.13
2022-09-24T23:29:00.421Z,55.63
2022-09-24T23:31:29.648Z,53.97
2022-09-24T23:33:58.431Z,52.72
2022-09-24T23:36:26.835Z,51.22
2022-09-24T23:38:53.954Z,51.17
2022-09-24T23:41:21.722Z,51.97
2022-09-24T23:43:48.873Z,51.90
2022-09-24T23:46:18.252Z,46.97
2022-09-24T23:48:45.159Z,48.10
2022-09-24T23:51:12.397Z,45.85
2022-09-24T23:53:39.607Z,52.75
2022-09-24T23:56:09.043Z,42.28
2022-09-24T23:58:36.053Z,44.92
